createdAt,value
2023-03-19T00:00:42.114Z,9.40
2023-03-19T00:03:32.069Z,10.30
2023-03-19T00:06:01.800Z,9.90
2023-03-19T00:08:30.510Z,10.50
2023-03-19T00:10:59.197Z,10.70
2023-03-19T00:13:30.486Z,11.50
2023-03-19T00:16:00.069Z,11.20
2023-03-19T00:18:28.867Z,10.60
2023-03-19T00:20:57.986Z,10.50
2023-03-19T00:23:26.592Z,9.30
2023-03-19T00:25:55.579Z,10.20
2023-03-19T00:28:25.542Z,10.10
2023-03-19T00:30:54.378Z,11.00
2023-03-19T00:33:23.226Z,11.50
2023-03-19T00:35:53.133Z,12.20
2023-03-19T00:38:21.771Z,10.60
2023-03-19T00:40:50.463Z,10.90
2023-03-19T00:43:19.604Z,11.60
2023-03-19T00:45:49.078Z,11.20
2023-03-19T00:48:18.356Z,10.90
2023-03-19T00:50:47.099Z,10.20
2023-03-19T00:53:16.934Z,10.70
2023-03-19T00:55:46.320Z,11.90
2023-03-19T00:58:15.082Z,12.50
2023-03-19T01:00:43.808Z,10.70
2023-03-19T01:03:12.775Z,11.70
2023-03-19T01:05:41.674Z,10.40
2023-03-19T01:08:11.703Z,10.90
2023-03-19T01:10:43.138Z,9.80
2023-03-19T01:13:13.987Z,11.60
2023-03-19T01:15:44.499Z,10.30
2023-03-19T01:18:13.837Z,11.30
2023-03-19T01:20:44.090Z,10.50
2023-03-19T01:23:14.498Z,10.20
2023-03-19T01:25:46.047Z,10.10
2023-03-19T01:28:14.908Z,11.20
2023-03-19T01:30:44.110Z,10.90
2023-03-19T01:33:17.609Z,10.30
2023-03-19T01:36:17.024Z,9.60
2023-03-19T01:38:57.430Z,10.00
2023-03-19T01:41:26.770Z,10.40
2023-03-19T01:43:59.457Z,10.60
2023-03-19T01:46:44.085Z,9.50
2023-03-19T01:49:29.087Z,9.80
2023-03-19T01:52:21.651Z,10.10
2023-03-19T01:55:12.011Z,9.40
2023-03-19T01:57:46.637Z,10.00
2023-03-19T02:00:54.836Z,9.50
2023-03-19T02:03:25.118Z,10.60
2023-03-19T02:06:15.316Z,10.80
2023-03-19T02:08:49.391Z,10.60
2023-03-19T02:11:20.221Z,10.50
2023-03-19T02:13:49.307Z,9.80
2023-03-19T02:16:19.023Z,9.60
2023-03-19T02:18:48.649Z,9.00
2023-03-19T02:21:20.100Z,9.40
2023-03-19T02:23:59.042Z,9.30
2023-03-19T02:26:44.257Z,9.20
2023-03-19T02:29:13.362Z,9.50
2023-03-19T02:31:42.438Z,9.10
2023-03-19T02:34:35.697Z,10.80
2023-03-19T02:37:11.249Z,10.70
2023-03-19T02:39:48.032Z,9.20
2023-03-19T02:42:19.642Z,10.80
2023-03-19T02:44:48.478Z,10.80
2023-03-19T02:47:18.282Z,10.10
2023-03-19T02:49:47.279Z,9.70
2023-03-19T02:52:17.117Z,9.20
2023-03-19T02:54:46.097Z,9.30
2023-03-19T02:57:15.173Z,9.60
2023-03-19T02:59:43.824Z,9.70
2023-03-19T03:02:13.537Z,9.30
2023-03-19T03:04:42.311Z,9.70
2023-03-19T03:07:14.356Z,9.60
2023-03-19T03:09:43.053Z,9.80
2023-03-19T03:12:13.068Z,10.00
2023-03-19T03:14:41.807Z,9.40
2023-03-19T03:17:11.705Z,9.00
2023-03-19T03:19:44.116Z,9.60
2023-03-19T03:22:13.038Z,9.90
2023-03-19T03:24:42.055Z,9.10
2023-03-19T03:27:11.750Z,9.90
2023-03-19T03:29:41.079Z,9.90
2023-03-19T03:32:10.914Z,9.80
2023-03-19T03:34:40.387Z,10.00
2023-03-19T03:37:12.318Z,9.40
2023-03-19T03:39:45.975Z,9.80
2023-03-19T03:42:15.135Z,10.40
2023-03-19T03:44:44.609Z,9.80
2023-03-19T03:47:18.149Z,10.10
2023-03-19T03:49:46.777Z,9.10
2023-03-19T03:52:16.959Z,9.20
2023-03-19T03:54:45.776Z,10.60
2023-03-19T03:57:15.236Z,9.20
2023-03-19T03:59:44.250Z,9.40
2023-03-19T04:02:13.348Z,8.60
2023-03-19T04:04:43.972Z,10.60
2023-03-19T04:07:13.571Z,9.90
2023-03-19T04:09:53.656Z,10.70
2023-03-19T04:12:25.089Z,8.30
2023-03-19T04:14:53.709Z,10.30
2023-03-19T04:17:23.166Z,10.70
2023-03-19T04:19:51.879Z,9.60
2023-03-19T04:22:20.780Z,9.00
2023-03-19T04:24:50.762Z,10.80
2023-03-19T04:27:19.643Z,10.90
2023-03-19T04:29:48.748Z,10.40
2023-03-19T04:32:19.555Z,9.50
2023-03-19T04:34:48.572Z,9.20
2023-03-19T04:37:17.216Z,10.90
2023-03-19T04:39:48.621Z,9.60
2023-03-19T04:42:18.608Z,9.20
2023-03-19T04:45:00.219Z,10.90
2023-03-19T04:47:33.624Z,8.70
2023-03-19T04:50:12.549Z,10.30
2023-03-19T04:52:42.252Z,11.10
2023-03-19T04:55:12.510Z,10.40
2023-03-19T04:57:58.476Z,10.30
2023-03-19T05:00:31.330Z,11.20
2023-03-19T05:03:00.902Z,11.10
2023-03-19T05:05:33.844Z,10.60
2023-03-19T05:08:05.435Z,10.80
2023-03-19T05:10:34.696Z,11.20
2023-03-19T05:13:07.954Z,10.30
2023-03-19T05:15:45.447Z,10.20
2023-03-19T05:18:16.028Z,9.50
2023-03-19T05:20:46.405Z,9.50
2023-03-19T05:23:22.826Z,11.10
2023-03-19T05:26:02.399Z,10.70
2023-03-19T05:29:02.923Z,9.30
2023-03-19T05:31:39.943Z,11.40
2023-03-19T05:34:08.748Z,9.50
2023-03-19T05:36:39.830Z,8.90
2023-03-19T05:39:16.241Z,11.00
2023-03-19T05:41:45.434Z,9.30
2023-03-19T05:44:18.178Z,10.20
2023-03-19T05:49:29.290Z,8.80
2023-03-19T05:52:00.830Z,9.10
2023-03-19T05:54:29.628Z,9.90
2023-03-19T05:57:20.837Z,10.50
2023-03-19T06:00:16.307Z,9.20
2023-03-19T06:02:45.810Z,10.20
2023-03-19T06:05:39.548Z,10.90
2023-03-19T06:08:18.160Z,10.40
2023-03-19T06:10:57.841Z,10.40
2023-03-19T06:13:28.140Z,10.40
2023-03-19T06:16:10.215Z,10.30
2023-03-19T06:19:05.487Z,10.40
2023-03-19T06:21:37.656Z,11.70
2023-03-19T06:24:07.361Z,12.00
2023-03-19T06:26:39.347Z,11.80
2023-03-19T06:29:16.374Z,12.00
2023-03-19T06:31:57.861Z,10.80
2023-03-19T06:34:48.231Z,12.60
2023-03-19T06:37:18.581Z,11.60
2023-03-19T06:39:49.508Z,14.20
2023-03-19T06:42:20.836Z,13.90
2023-03-19T06:44:52.984Z,14.40
2023-03-19T06:47:29.559Z,15.40
2023-03-19T06:50:01.120Z,18.60
2023-03-19T06:52:36.210Z,19.50
2023-03-19T06:55:08.366Z,18.50
2023-03-19T06:57:41.083Z,19.40
2023-03-19T07:00:20.190Z,18.60
2023-03-19T07:02:49.598Z,13.90
2023-03-19T07:05:26.761Z,14.40
2023-03-19T07:07:55.761Z,18.60
2023-03-19T07:10:24.648Z,14.70
2023-03-19T07:12:53.986Z,13.30
2023-03-19T07:15:22.887Z,13.30
2023-03-19T07:17:54.642Z,13.90
2023-03-19T07:20:27.729Z,14.50
2023-03-19T07:23:00.319Z,16.20
2023-03-19T07:25:29.237Z,16.00
2023-03-19T07:27:58.767Z,15.40
2023-03-19T07:30:27.778Z,14.10
2023-03-19T07:32:56.990Z,14.70
2023-03-19T07:35:28.132Z,12.40
2023-03-19T07:37:58.825Z,18.10
2023-03-19T07:40:30.274Z,17.80
2023-03-19T07:42:59.468Z,16.30
2023-03-19T07:45:28.543Z,15.60
2023-03-19T07:47:57.929Z,15.30
2023-03-19T07:50:26.914Z,14.80
2023-03-19T07:52:56.213Z,15.30
2023-03-19T07:55:25.902Z,15.20
2023-03-19T07:57:55.377Z,14.00
2023-03-19T08:00:24.741Z,14.70
2023-03-19T08:02:53.914Z,12.70
2023-03-19T08:05:22.722Z,14.70
2023-03-19T08:07:51.336Z,12.60
2023-03-19T08:10:21.896Z,11.40
2023-03-19T08:12:56.973Z,11.70
2023-03-19T08:15:26.431Z,14.80
2023-03-19T08:18:04.950Z,11.20
2023-03-19T08:20:36.793Z,11.80
2023-03-19T08:23:06.908Z,11.00
2023-03-19T08:25:40.932Z,10.70
2023-03-19T08:28:11.560Z,10.80
2023-03-19T08:30:40.504Z,11.00
2023-03-19T08:33:10.429Z,11.00
2023-03-19T08:35:42.245Z,11.30
2023-03-19T08:38:15.480Z,10.60
2023-03-19T08:40:44.121Z,10.60
2023-03-19T08:43:17.153Z,10.50
2023-03-19T08:45:49.227Z,10.90
2023-03-19T08:48:20.618Z,10.90
2023-03-19T08:50:54.392Z,10.70
2023-03-19T08:53:26.274Z,11.10
2023-03-19T08:55:56.822Z,12.10
2023-03-19T08:58:26.603Z,11.50
2023-03-19T09:01:02.899Z,10.90
2023-03-19T09:03:33.023Z,10.80
2023-03-19T09:06:06.043Z,9.50
2023-03-19T09:08:38.617Z,9.30
2023-03-19T09:11:12.494Z,10.50
2023-03-19T09:13:50.461Z,10.50
2023-03-19T09:16:27.033Z,11.00
2023-03-19T09:19:02.773Z,11.50
2023-03-19T09:21:51.212Z,10.70
2023-03-19T09:24:22.245Z,10.60
2023-03-19T09:26:59.969Z,10.90
2023-03-19T09:29:29.281Z,10.50
2023-03-19T09:32:02.318Z,11.00
2023-03-19T09:34:31.568Z,10.40
2023-03-19T09:37:00.815Z,10.70
2023-03-19T09:39:31.201Z,10.90
2023-03-19T09:42:15.645Z,10.50
2023-03-19T09:44:47.426Z,10.20
2023-03-19T09:47:28.296Z,10.90
2023-03-19T09:50:04.830Z,10.20
2023-03-19T09:52:42.751Z,10.00
2023-03-19T09:55:21.211Z,10.10
2023-03-19T09:57:52.800Z,10.10
2023-03-19T10:00:25.321Z,10.30
2023-03-19T10:03:03.891Z,9.60
2023-03-19T10:05:45.513Z,9.20
2023-03-19T10:08:31.605Z,9.40
2023-03-19T10:11:14.819Z,8.70
2023-03-19T10:13:53.593Z,9.40
2023-03-19T10:16:24.820Z,9.00
2023-03-19T10:19:00.544Z,9.00
2023-03-19T10:21:36.370Z,10.30
2023-03-19T10:24:11.904Z,9.40
2023-03-19T10:26:41.288Z,9.40
2023-03-19T10:29:15.347Z,8.90
2023-03-19T10:31:58.276Z,9.10
2023-03-19T10:34:32.842Z,9.00
2023-03-19T10:37:03.540Z,9.00
2023-03-19T10:39:34.813Z,9.40
2023-03-19T10:42:21.724Z,8.50
2023-03-19T10:44:56.615Z,8.60
2023-03-19T10:47:34.979Z,9.00
2023-03-19T10:50:06.175Z,8.80
2023-03-19T10:52:37.139Z,8.90
2023-03-19T10:55:15.878Z,8.60
2023-03-19T10:57:50.077Z,8.90
2023-03-19T11:00:24.587Z,8.90
2023-03-19T11:02:55.354Z,8.00
2023-03-19T11:05:28.329Z,8.20
2023-03-19T11:08:01.235Z,7.80
2023-03-19T11:10:32.904Z,7.50
2023-03-19T11:13:07.421Z,7.50
2023-03-19T11:15:40.611Z,7.80
2023-03-19T11:18:21.479Z,8.00
2023-03-19T11:20:56.372Z,7.30
2023-03-19T11:23:28.431Z,8.10
2023-03-19T11:26:01.528Z,7.50
2023-03-19T11:28:33.498Z,6.90
2023-03-19T11:31:16.191Z,8.10
2023-03-19T11:34:00.842Z,7.30
2023-03-19T11:36:34.362Z,7.40
2023-03-19T11:39:17.888Z,7.10
2023-03-19T11:42:05.139Z,8.20
2023-03-19T11:44:40.367Z,7.50
2023-03-19T11:47:27.370Z,7.00
2023-03-19T11:50:08.044Z,6.70
2023-03-19T11:52:41.959Z,9.00
2023-03-19T11:55:21.892Z,8.50
2023-03-19T11:58:08.504Z,7.60
2023-03-19T12:00:46.105Z,7.80
2023-03-19T12:03:40.936Z,8.00
2023-03-19T12:06:19.421Z,7.60
2023-03-19T12:08:58.096Z,8.20
2023-03-19T12:11:35.531Z,8.70
2023-03-19T12:14:17.041Z,7.70
2023-03-19T12:17:06.890Z,7.30
2023-03-19T12:19:52.393Z,8.50
2023-03-19T12:22:32.981Z,8.10
2023-03-19T12:25:22.045Z,8.10
2023-03-19T12:27:55.052Z,8.90
2023-03-19T12:30:33.515Z,7.20
2023-03-19T12:33:18.273Z,8.10
2023-03-19T12:35:49.908Z,8.40
2023-03-19T12:38:24.965Z,7.30
2023-03-19T12:40:58.716Z,8.20
2023-03-19T12:43:32.336Z,6.90
2023-03-19T12:46:06.972Z,6.80
2023-03-19T12:48:42.688Z,8.50
2023-03-19T12:51:23.320Z,8.30
2023-03-19T12:53:57.338Z,6.40
2023-03-19T12:56:32.807Z,6.80
2023-03-19T12:59:08.221Z,7.30
2023-03-19T13:01:42.441Z,7.00
2023-03-19T13:04:17.992Z,7.70
2023-03-19T13:06:54.489Z,6.00
2023-03-19T13:09:36.486Z,6.50
2023-03-19T13:12:12.377Z,7.10
2023-03-19T13:14:53.285Z,7.40
2023-03-19T13:17:27.438Z,7.10
2023-03-19T13:19:58.579Z,7.30
2023-03-19T13:22:33.467Z,6.30
2023-03-19T13:25:03.618Z,8.00
2023-03-19T13:27:34.437Z,6.90
2023-03-19T13:30:17.332Z,6.50
2023-03-19T13:32:48.941Z,7.40
2023-03-19T13:35:38.671Z,7.10
2023-03-19T13:38:19.462Z,6.60
2023-03-19T13:40:50.540Z,6.90
2023-03-19T13:43:50.373Z,6.40
2023-03-19T13:46:37.872Z,6.90
2023-03-19T13:49:26.723Z,6.20
2023-03-19T13:52:18.637Z,6.90
2023-03-19T13:54:57.213Z,6.60
2023-03-19T13:57:36.334Z,6.30
2023-03-19T14:00:44.520Z,6.40
2023-03-19T14:03:22.496Z,6.70
2023-03-19T14:08:24.438Z,6.10
2023-03-19T14:10:55.965Z,6.30
2023-03-19T14:13:38.566Z,7.20
2023-03-19T14:16:20.765Z,5.60
2023-03-19T14:18:50.775Z,6.00
2023-03-19T14:21:35.879Z,6.00
2023-03-19T14:25:03.983Z,6.10
2023-03-19T14:27:29.990Z,6.10
2023-03-19T14:30:02.060Z,6.20
2023-03-19T14:32:40.165Z,6.70
2023-03-19T14:35:16.725Z,6.60
2023-03-19T14:37:48.866Z,8.00
2023-03-19T14:40:20.868Z,5.90
2023-03-19T14:42:59.175Z,7.90
2023-03-19T14:45:47.739Z,9.80
2023-03-19T14:48:39.512Z,9.40
2023-03-19T14:51:36.616Z,10.20
2023-03-19T14:54:17.048Z,7.80
2023-03-19T14:56:50.146Z,7.30
2023-03-19T14:59:39.066Z,8.00
2023-03-19T15:02:21.844Z,7.60
2023-03-19T15:04:51.632Z,6.50
2023-03-19T15:07:25.661Z,6.10
2023-03-19T15:09:55.709Z,7.10
2023-03-19T15:12:37.824Z,6.60
2023-03-19T15:15:21.730Z,6.20
2023-03-19T15:18:03.782Z,6.30
2023-03-19T15:20:38.982Z,6.80
2023-03-19T15:23:25.794Z,6.30
2023-03-19T15:25:57.469Z,6.90
2023-03-19T15:28:28.375Z,7.20
2023-03-19T15:31:14.323Z,7.20
2023-03-19T15:33:49.174Z,6.00
2023-03-19T15:36:22.640Z,6.70
2023-03-19T15:38:58.661Z,6.60
2023-03-19T15:41:31.027Z,6.60
2023-03-19T15:44:01.614Z,7.10
2023-03-19T15:46:37.054Z,5.80
2023-03-19T15:49:11.883Z,5.80
2023-03-19T15:51:43.015Z,6.70
2023-03-19T15:54:17.009Z,6.30
2023-03-19T15:56:46.230Z,6.80
2023-03-19T15:59:18.255Z,5.60
2023-03-19T16:01:48.320Z,6.00
2023-03-19T16:04:24.894Z,6.50
2023-03-19T16:07:00.739Z,5.20
2023-03-19T16:09:34.232Z,5.20
2023-03-19T16:12:25.508Z,5.10
2023-03-19T16:14:54.496Z,5.50
2023-03-19T16:17:34.246Z,5.20
2023-03-19T16:20:06.056Z,5.30
2023-03-19T16:22:38.653Z,5.40
2023-03-19T16:25:15.416Z,5.90
2023-03-19T16:27:44.358Z,6.30
2023-03-19T16:30:25.067Z,5.90
2023-03-19T16:33:01.465Z,6.10
2023-03-19T16:35:33.283Z,6.30
2023-03-19T16:38:14.276Z,6.20
2023-03-19T16:40:48.052Z,6.60
2023-03-19T16:43:19.384Z,5.50
2023-03-19T16:45:52.868Z,5.60
2023-03-19T16:48:21.768Z,6.40
2023-03-19T16:50:50.734Z,6.40
2023-03-19T16:53:26.819Z,6.60
2023-03-19T16:55:57.904Z,6.60
2023-03-19T16:58:31.734Z,7.40
2023-03-19T17:01:02.030Z,8.20
2023-03-19T17:03:31.136Z,7.90
2023-03-19T17:06:00.268Z,8.20
2023-03-19T17:08:29.527Z,10.40
2023-03-19T17:10:58.608Z,12.00
2023-03-19T17:13:29.894Z,11.50
2023-03-19T17:16:01.932Z,14.00
2023-03-19T17:18:36.864Z,13.30
2023-03-19T17:21:15.284Z,13.50
2023-03-19T17:23:48.592Z,14.10
2023-03-19T17:26:21.943Z,14.10
2023-03-19T17:28:58.517Z,14.00
2023-03-19T17:31:35.122Z,14.10
2023-03-19T17:34:05.937Z,13.60
2023-03-19T17:36:36.931Z,13.60
2023-03-19T17:39:06.724Z,15.80
2023-03-19T17:41:38.718Z,16.90
2023-03-19T17:44:08.227Z,20.60
2023-03-19T17:46:56.666Z,21.70
2023-03-19T17:49:31.933Z,21.10
2023-03-19T17:52:02.849Z,20.70
2023-03-19T17:54:35.032Z,20.70
2023-03-19T17:57:06.558Z,23.20
2023-03-19T17:59:38.204Z,22.20
2023-03-19T18:02:23.573Z,21.70
2023-03-19T18:04:52.785Z,24.60
2023-03-19T18:07:22.087Z,19.90
2023-03-19T18:09:54.301Z,16.10
2023-03-19T18:12:23.779Z,14.50
2023-03-19T18:14:52.810Z,14.80
2023-03-19T18:17:21.659Z,13.60
2023-03-19T18:19:54.277Z,12.50
2023-03-19T18:22:23.334Z,12.50
2023-03-19T18:24:54.221Z,13.40
2023-03-19T18:27:24.594Z,13.30
2023-03-19T18:29:53.697Z,13.20
2023-03-19T18:32:31.974Z,14.40
2023-03-19T18:35:05.461Z,14.60
2023-03-19T18:37:42.803Z,16.10
2023-03-19T18:40:16.235Z,17.30
2023-03-19T18:42:45.167Z,18.50
2023-03-19T18:45:15.081Z,18.50
2023-03-19T18:47:51.856Z,17.10
2023-03-19T18:50:51.865Z,18.40
2023-03-19T18:53:32.156Z,17.50
2023-03-19T18:56:15.982Z,18.90
2023-03-19T18:58:50.325Z,18.20
2023-03-19T19:01:20.451Z,17.00
2023-03-19T19:06:47.870Z,17.60
2023-03-19T19:09:17.195Z,19.00
2023-03-19T19:12:04.007Z,19.00
2023-03-19T19:14:42.530Z,19.20
2023-03-19T19:17:20.635Z,19.30
2023-03-19T19:19:49.734Z,18.80
2023-03-19T19:22:22.096Z,20.50
2023-03-19T19:24:51.587Z,21.40
2023-03-19T19:27:25.405Z,24.10
2023-03-19T19:29:54.671Z,25.70
2023-03-19T19:32:30.135Z,24.70
2023-03-19T19:35:07.718Z,26.40
2023-03-19T19:37:39.318Z,26.70
2023-03-19T19:40:13.682Z,26.00
2023-03-19T19:42:46.103Z,29.20
2023-03-19T19:45:39.470Z,31.40
2023-03-19T19:48:15.617Z,29.70
2023-03-19T19:50:45.790Z,28.70
2023-03-19T19:53:15.492Z,29.90
2023-03-19T19:55:46.503Z,30.30
2023-03-19T19:58:21.018Z,30.80
2023-03-19T20:01:02.738Z,27.60
2023-03-19T20:03:54.956Z,32.00
2023-03-19T20:06:25.138Z,31.50
2023-03-19T20:08:59.495Z,32.50
2023-03-19T20:11:35.487Z,31.30
2023-03-19T20:14:12.379Z,31.60
2023-03-19T20:16:46.777Z,30.80
2023-03-19T20:19:19.634Z,32.40
2023-03-19T20:21:48.548Z,31.20
2023-03-19T20:24:17.912Z,31.80
2023-03-19T20:27:01.345Z,32.80
2023-03-19T20:29:35.734Z,32.20
2023-03-19T20:32:24.607Z,32.00
2023-03-19T20:34:53.314Z,30.70
2023-03-19T20:37:22.285Z,31.80
2023-03-19T20:39:53.609Z,31.90
2023-03-19T20:42:25.331Z,31.60
2023-03-19T20:44:56.771Z,32.80
2023-03-19T20:47:30.869Z,31.90
2023-03-19T20:50:04.380Z,33.00
2023-03-19T20:52:33.054Z,30.60
2023-03-19T20:55:06.894Z,30.40
2023-03-19T20:57:36.272Z,31.20
2023-03-19T21:00:19.302Z,31.40
2023-03-19T21:02:50.673Z,30.20
2023-03-19T21:05:22.681Z,32.50
2023-03-19T21:07:56.241Z,33.80
2023-03-19T21:10:32.250Z,33.90
2023-03-19T21:13:03.098Z,32.20
2023-03-19T21:15:32.039Z,31.90
2023-03-19T21:18:01.496Z,34.20
2023-03-19T21:20:37.717Z,33.60
2023-03-19T21:23:17.098Z,32.50
2023-03-19T21:25:50.127Z,32.80
2023-03-19T21:28:24.064Z,32.40
2023-03-19T21:30:56.990Z,32.90
2023-03-19T21:33:28.340Z,33.40
2023-03-19T21:36:03.711Z,33.40
2023-03-19T21:38:32.500Z,32.00
2023-03-19T21:41:12.734Z,32.20
2023-03-19T21:43:44.282Z,32.80
2023-03-19T21:46:25.205Z,32.60
2023-03-19T21:48:58.356Z,31.50
2023-03-19T21:51:29.954Z,32.00
2023-03-19T21:53:58.752Z,31.10
2023-03-19T21:56:33.037Z,34.10
2023-03-19T21:59:12.247Z,33.60
2023-03-19T22:01:42.434Z,33.20
2023-03-19T22:04:16.685Z,33.40
2023-03-19T22:06:54.608Z,34.10
2023-03-19T22:09:24.507Z,34.30
2023-03-19T22:11:56.932Z,35.60
2023-03-19T22:14:30.805Z,33.90
2023-03-19T22:17:10.324Z,34.80
2023-03-19T22:19:41.429Z,33.50
2023-03-19T22:22:14.795Z,34.90
2023-03-19T22:24:43.728Z,33.00
2023-03-19T22:27:20.076Z,33.70
2023-03-19T22:29:49.984Z,34.60
2023-03-19T22:32:20.578Z,33.20
2023-03-19T22:34:50.279Z,33.80
2023-03-19T22:37:26.651Z,32.30
2023-03-19T22:39:56.396Z,32.30
2023-03-19T22:42:26.834Z,30.50
2023-03-19T22:44:57.675Z,35.80
2023-03-19T22:47:26.996Z,33.00
2023-03-19T22:49:55.669Z,34.00
2023-03-19T22:52:24.504Z,30.60
2023-03-19T22:54:53.936Z,32.30
2023-03-19T22:57:26.353Z,34.40
2023-03-19T22:59:55.130Z,34.70
2023-03-19T23:02:24.593Z,32.90
2023-03-19T23:04:53.303Z,34.70
2023-03-19T23:07:22.010Z,33.90
2023-03-19T23:09:50.617Z,33.30
2023-03-19T23:12:20.345Z,34.50
2023-03-19T23:14:49.272Z,32.70
2023-03-19T23:17:18.989Z,34.50
2023-03-19T23:19:47.888Z,31.80
2023-03-19T23:22:17.266Z,29.50
2023-03-19T23:24:45.891Z,29.20
2023-03-19T23:27:23.536Z,31.30
2023-03-19T23:29:53.160Z,31.40
2023-03-19T23:32:22.379Z,33.20
2023-03-19T23:34:59.563Z,31.30
2023-03-19T23:37:29.995Z,32.20
2023-03-19T23:39:58.747Z,30.70
2023-03-19T23:42:31.768Z,30.20
2023-03-19T23:45:03.379Z,32.00
2023-03-19T23:47:35.373Z,31.60
2023-03-19T23:50:04.389Z,29.00
2023-03-19T23:52:35.007Z,31.20
2023-03-19T23:55:03.741Z,30.90
2023-03-19T23:57:33.628Z,30.80
